sensor_id;sensor_type;location;lat;lon;timestamp;P1;durP1;ratioP1;P2;durP2;ratioP2
2824;SDS011;1420;51.324;12.344;2022-11-23T00:01:27;26.10;;;6.97;;
2824;SDS011;1420;51.324;12.344;2022-11-23T00:03:55;20.23;;;5.75;;
2824;SDS011;1420;51.324;12.344;2022-11-23T00:06:23;20.30;;;5.18;;
2824;SDS011;1420;51.324;12.344;2022-11-23T00:08:51;26.98;;;7.52;;
2824;SDS011;1420;51.324;12.344;2022-11-23T00:11:18;26.15;;;6.53;;
2824;SDS011;1420;51.324;12.344;2022-11-23T00:13:45;20.53;;;5.33;;
2824;SDS011;1420;51.324;12.344;2022-11-23T00:16:14;27.53;;;6.08;;
2824;SDS011;1420;51.324;12.344;2022-11-23T00:18:41;22.82;;;8.58;;
2824;SDS011;1420;51.324;12.344;2022-11-23T00:21:09;19.98;;;7.47;;
2824;SDS011;1420;51.324;12.344;2022-11-23T00:23:35;22.55;;;5.87;;
2824;SDS011;1420;51.324;12.344;2022-11-23T00:26:03;23.03;;;6.97;;
2824;SDS011;1420;51.324;12.344;2022-11-23T00:28:30;24.08;;;6.68;;
2824;SDS011;1420;51.324;12.344;2022-11-23T00:30:57;24.80;;;6.65;;
2824;SDS011;1420;51.324;12.344;2022-11-23T00:33:25;22.10;;;5.05;;
2824;SDS011;1420;51.324;12.344;2022-11-23T00:35:58;23.72;;;6.12;;
2824;SDS011;1420;51.324;12.344;2022-11-23T00:38:25;24.00;;;6.17;;
2824;SDS011;1420;51.324;12.344;2022-11-23T00:40:58;21.98;;;6.83;;
2824;SDS011;1420;51.324;12.344;2022-11-23T00:43:26;21.50;;;5.13;;
2824;SDS011;1420;51.324;12.344;2022-11-23T00:48:27;22.87;;;5.70;;
2824;SDS011;1420;51.324;12.344;2022-11-23T00:50:55;28.68;;;8.27;;
2824;SDS011;1420;51.324;12.344;2022-11-23T00:53:22;18.23;;;5.10;;
2824;SDS011;1420;51.324;12.344;2022-11-23T00:55:51;21.27;;;6.20;;
2824;SDS011;1420;51.324;12.344;2022-11-23T00:58:19;19.85;;;7.07;;
2824;SDS011;1420;51.324;12.344;2022-11-23T01:00:46;19.82;;;5.10;;
2824;SDS011;1420;51.324;12.344;2022-11-23T01:03:14;25.40;;;8.30;;
2824;SDS011;1420;51.324;12.344;2022-11-23T01:05:41;20.43;;;6.42;;
2824;SDS011;1420;51.324;12.344;2022-11-23T01:08:08;21.40;;;5.33;;
2824;SDS011;1420;51.324;12.344;2022-11-23T01:10:36;27.33;;;5.67;;
2824;SDS011;1420;51.324;12.344;2022-11-23T01:13:03;21.45;;;5.72;;
2824;SDS011;1420;51.324;12.344;2022-11-23T01:15:31;21.97;;;6.33;;
2824;SDS011;1420;51.324;12.344;2022-11-23T01:17:57;29.27;;;10.35;;
2824;SDS011;1420;51.324;12.344;2022-11-23T01:20:24;26.73;;;7.63;;
2824;SDS011;1420;51.324;12.344;2022-11-23T01:22:52;23.80;;;6.93;;
2824;SDS011;1420;51.324;12.344;2022-11-23T01:25:19;23.25;;;6.43;;
2824;SDS011;1420;51.324;12.344;2022-11-23T01:27:46;23.13;;;6.02;;
2824;SDS011;1420;51.324;12.344;2022-11-23T01:30:14;19.87;;;7.03;;
2824;SDS011;1420;51.324;12.344;2022-11-23T01:32:41;18.68;;;5.72;;
2824;SDS011;1420;51.324;12.344;2022-11-23T01:35:09;22.73;;;5.37;;
2824;SDS011;1420;51.324;12.344;2022-11-23T01:37:36;21.65;;;5.45;;
2824;SDS011;1420;51.324;12.344;2022-11-23T01:40:04;21.22;;;5.63;;
2824;SDS011;1420;51.324;12.344;2022-11-23T01:42:39;20.15;;;4.55;;
2824;SDS011;1420;51.324;12.344;2022-11-23T01:47:44;22.77;;;5.78;;
2824;SDS011;1420;51.324;12.344;2022-11-23T01:50:12;22.30;;;5.55;;
2824;SDS011;1420;51.324;12.344;2022-11-23T01:52:39;26.63;;;6.47;;
2824;SDS011;1420;51.324;12.344;2022-11-23T01:55:07;21.45;;;5.32;;
2824;SDS011;1420;51.324;12.344;2022-11-23T01:57:38;20.25;;;4.75;;
2824;SDS011;1420;51.324;12.344;2022-11-23T02:00:01;18.68;;;4.93;;
2824;SDS011;1420;51.324;12.344;2022-11-23T02:02:28;23.12;;;5.17;;
2824;SDS011;1420;51.324;12.344;2022-11-23T02:04:56;17.45;;;4.43;;
2824;SDS011;1420;51.324;12.344;2022-11-23T02:07:23;19.68;;;5.38;;
2824;SDS011;1420;51.324;12.344;2022-11-23T02:09:51;22.20;;;4.87;;
2824;SDS011;1420;51.324;12.344;2022-11-23T02:12:18;20.45;;;5.10;;
2824;SDS011;1420;51.324;12.344;2022-11-23T02:14:45;19.67;;;4.97;;
2824;SDS011;1420;51.324;12.344;2022-11-23T02:17:13;21.23;;;5.10;;
2824;SDS011;1420;51.324;12.344;2022-11-23T02:19:47;18.72;;;4.70;;
2824;SDS011;1420;51.324;12.344;2022-11-23T02:22:30;18.00;;;4.58;;
2824;SDS011;1420;51.324;12.344;2022-11-23T02:24:55;20.15;;;6.17;;
2824;SDS011;1420;51.324;12.344;2022-11-23T02:27:22;19.43;;;5.58;;
2824;SDS011;1420;51.324;12.344;2022-11-23T02:29:50;23.57;;;4.88;;
2824;SDS011;1420;51.324;12.344;2022-11-23T02:32:18;21.70;;;5.50;;
2824;SDS011;1420;51.324;12.344;2022-11-23T02:34:45;20.13;;;5.92;;
2824;SDS011;1420;51.324;12.344;2022-11-23T02:37:12;19.27;;;4.15;;
2824;SDS011;1420;51.324;12.344;2022-11-23T02:39:41;22.70;;;5.38;;
2824;SDS011;1420;51.324;12.344;2022-11-23T02:42:08;18.07;;;5.05;;
2824;SDS011;1420;51.324;12.344;2022-11-23T02:44:39;22.33;;;5.48;;
2824;SDS011;1420;51.324;12.344;2022-11-23T02:47:14;20.47;;;5.13;;
2824;SDS011;1420;51.324;12.344;2022-11-23T02:49:44;18.10;;;4.53;;
2824;SDS011;1420;51.324;12.344;2022-11-23T02:52:09;17.32;;;5.23;;
2824;SDS011;1420;51.324;12.344;2022-11-23T02:54:37;17.65;;;5.47;;
2824;SDS011;1420;51.324;12.344;2022-11-23T02:57:05;18.72;;;4.33;;
2824;SDS011;1420;51.324;12.344;2022-11-23T02:59:32;19.45;;;5.53;;
2824;SDS011;1420;51.324;12.344;2022-11-23T03:01:59;18.40;;;5.73;;
2824;SDS011;1420;51.324;12.344;2022-11-23T03:04:26;17.12;;;4.70;;
2824;SDS011;1420;51.324;12.344;2022-11-23T03:06:53;18.13;;;4.75;;
2824;SDS011;1420;51.324;12.344;2022-11-23T03:09:21;18.00;;;5.03;;
2824;SDS011;1420;51.324;12.344;2022-11-23T03:11:48;17.37;;;4.70;;
2824;SDS011;1420;51.324;12.344;2022-11-23T03:14:15;16.42;;;4.27;;
2824;SDS011;1420;51.324;12.344;2022-11-23T03:16:42;20.78;;;4.70;;
2824;SDS011;1420;51.324;12.344;2022-11-23T03:19:09;20.30;;;6.70;;
2824;SDS011;1420;51.324;12.344;2022-11-23T03:21:37;23.35;;;5.73;;
2824;SDS011;1420;51.324;12.344;2022-11-23T03:24:04;16.80;;;4.63;;
2824;SDS011;1420;51.324;12.344;2022-11-23T03:26:31;19.60;;;4.83;;
2824;SDS011;1420;51.324;12.344;2022-11-23T03:28:59;20.95;;;5.10;;
2824;SDS011;1420;51.324;12.344;2022-11-23T03:31:26;17.02;;;4.52;;
2824;SDS011;1420;51.324;12.344;2022-11-23T03:33:53;16.08;;;4.10;;
2824;SDS011;1420;51.324;12.344;2022-11-23T03:36:20;20.38;;;4.58;;
2824;SDS011;1420;51.324;12.344;2022-11-23T03:38:48;19.90;;;5.05;;
2824;SDS011;1420;51.324;12.344;2022-11-23T03:41:15;19.22;;;5.77;;
2824;SDS011;1420;51.324;12.344;2022-11-23T03:43:42;23.73;;;6.63;;
2824;SDS011;1420;51.324;12.344;2022-11-23T03:46:09;21.00;;;5.83;;
2824;SDS011;1420;51.324;12.344;2022-11-23T03:48:37;20.83;;;5.55;;
2824;SDS011;1420;51.324;12.344;2022-11-23T03:51:04;17.07;;;5.03;;
2824;SDS011;1420;51.324;12.344;2022-11-23T03:53:31;18.87;;;4.55;;
2824;SDS011;1420;51.324;12.344;2022-11-23T03:55:59;19.43;;;5.78;;
2824;SDS011;1420;51.324;12.344;2022-11-23T03:58:27;17.95;;;4.60;;
2824;SDS011;1420;51.324;12.344;2022-11-23T04:00:54;19.62;;;5.73;;
2824;SDS011;1420;51.324;12.344;2022-11-23T04:03:21;21.03;;;5.42;;
2824;SDS011;1420;51.324;12.344;2022-11-23T04:05:49;19.08;;;5.47;;
2824;SDS011;1420;51.324;12.344;2022-11-23T04:08:16;18.05;;;5.10;;
2824;SDS011;1420;51.324;12.344;2022-11-23T04:10:43;19.48;;;5.83;;
2824;SDS011;1420;51.324;12.344;2022-11-23T04:13:10;21.77;;;5.42;;
2824;SDS011;1420;51.324;12.344;2022-11-23T04:15:38;18.32;;;4.42;;
2824;SDS011;1420;51.324;12.344;2022-11-23T04:18:05;18.62;;;5.13;;
2824;SDS011;1420;51.324;12.344;2022-11-23T04:20:32;18.70;;;5.05;;
2824;SDS011;1420;51.324;12.344;2022-11-23T04:23:00;17.38;;;4.70;;
2824;SDS011;1420;51.324;12.344;2022-11-23T04:25:27;25.43;;;6.12;;
2824;SDS011;1420;51.324;12.344;2022-11-23T04:27:54;21.30;;;5.40;;
2824;SDS011;1420;51.324;12.344;2022-11-23T04:30:22;17.63;;;5.13;;
2824;SDS011;1420;51.324;12.344;2022-11-23T04:32:49;21.85;;;5.68;;
2824;SDS011;1420;51.324;12.344;2022-11-23T04:35:17;21.22;;;5.00;;
2824;SDS011;1420;51.324;12.344;2022-11-23T04:37:44;19.38;;;5.05;;
2824;SDS011;1420;51.324;12.344;2022-11-23T04:40:12;18.80;;;6.07;;
2824;SDS011;1420;51.324;12.344;2022-11-23T04:42:39;21.03;;;5.98;;
2824;SDS011;1420;51.324;12.344;2022-11-23T04:45:06;22.68;;;6.82;;
2824;SDS011;1420;51.324;12.344;2022-11-23T04:47:34;19.63;;;5.90;;
2824;SDS011;1420;51.324;12.344;2022-11-23T04:50:01;20.57;;;4.42;;
2824;SDS011;1420;51.324;12.344;2022-11-23T04:52:28;23.95;;;5.62;;
2824;SDS011;1420;51.324;12.344;2022-11-23T04:54:56;23.23;;;5.13;;
2824;SDS011;1420;51.324;12.344;2022-11-23T04:57:23;21.50;;;6.05;;
2824;SDS011;1420;51.324;12.344;2022-11-23T04:59:50;23.02;;;6.00;;
2824;SDS011;1420;51.324;12.344;2022-11-23T05:02:17;21.92;;;5.38;;
2824;SDS011;1420;51.324;12.344;2022-11-23T05:04:44;26.17;;;5.33;;
2824;SDS011;1420;51.324;12.344;2022-11-23T05:07:12;18.58;;;5.12;;
2824;SDS011;1420;51.324;12.344;2022-11-23T05:09:39;18.85;;;4.73;;
2824;SDS011;1420;51.324;12.344;2022-11-23T05:12:06;20.48;;;5.43;;
2824;SDS011;1420;51.324;12.344;2022-11-23T05:14:33;24.08;;;5.97;;
2824;SDS011;1420;51.324;12.344;2022-11-23T05:17:00;22.43;;;6.63;;
2824;SDS011;1420;51.324;12.344;2022-11-23T05:19:28;21.10;;;5.88;;
2824;SDS011;1420;51.324;12.344;2022-11-23T05:21:56;18.67;;;5.45;;
2824;SDS011;1420;51.324;12.344;2022-11-23T05:24:23;19.68;;;5.25;;
2824;SDS011;1420;51.324;12.344;2022-11-23T05:26:50;20.37;;;5.52;;
2824;SDS011;1420;51.324;12.344;2022-11-23T05:29:17;23.02;;;5.22;;
2824;SDS011;1420;51.324;12.344;2022-11-23T05:31:44;18.55;;;4.38;;
2824;SDS011;1420;51.324;12.344;2022-11-23T05:34:12;22.72;;;6.13;;
2824;SDS011;1420;51.324;12.344;2022-11-23T05:36:40;22.20;;;5.30;;
2824;SDS011;1420;51.324;12.344;2022-11-23T05:39:08;22.17;;;5.93;;
2824;SDS011;1420;51.324;12.344;2022-11-23T05:41:36;25.57;;;7.03;;
2824;SDS011;1420;51.324;12.344;2022-11-23T05:44:04;24.20;;;6.38;;
2824;SDS011;1420;51.324;12.344;2022-11-23T05:46:32;24.65;;;6.63;;
2824;SDS011;1420;51.324;12.344;2022-11-23T05:49:00;22.07;;;8.12;;
2824;SDS011;1420;51.324;12.344;2022-11-23T05:51:27;22.52;;;7.03;;
2824;SDS011;1420;51.324;12.344;2022-11-23T05:53:54;25.20;;;7.15;;
2824;SDS011;1420;51.324;12.344;2022-11-23T05:56:22;21.10;;;5.78;;
2824;SDS011;1420;51.324;12.344;2022-11-23T05:58:49;23.25;;;6.32;;
2824;SDS011;1420;51.324;12.344;2022-11-23T06:01:16;20.83;;;6.70;;
2824;SDS011;1420;51.324;12.344;2022-11-23T06:03:43;20.97;;;6.35;;
2824;SDS011;1420;51.324;12.344;2022-11-23T06:06:11;25.42;;;7.38;;
2824;SDS011;1420;51.324;12.344;2022-11-23T06:08:38;21.70;;;5.82;;
2824;SDS011;1420;51.324;12.344;2022-11-23T06:11:05;22.87;;;6.35;;
2824;SDS011;1420;51.324;12.344;2022-11-23T06:13:33;22.75;;;7.03;;
2824;SDS011;1420;51.324;12.344;2022-11-23T06:16:01;21.63;;;5.45;;
2824;SDS011;1420;51.324;12.344;2022-11-23T06:18:28;24.77;;;7.22;;
2824;SDS011;1420;51.324;12.344;2022-11-23T06:20:58;20.80;;;5.82;;
2824;SDS011;1420;51.324;12.344;2022-11-23T06:23:22;22.98;;;8.08;;
2824;SDS011;1420;51.324;12.344;2022-11-23T06:25:50;21.68;;;6.27;;
2824;SDS011;1420;51.324;12.344;2022-11-23T06:28:18;24.28;;;6.30;;
2824;SDS011;1420;51.324;12.344;2022-11-23T06:30:46;23.32;;;7.68;;
2824;SDS011;1420;51.324;12.344;2022-11-23T06:33:13;18.90;;;5.38;;
2824;SDS011;1420;51.324;12.344;2022-11-23T06:35:41;24.87;;;7.12;;
2824;SDS011;1420;51.324;12.344;2022-11-23T06:38:08;24.82;;;7.12;;
2824;SDS011;1420;51.324;12.344;2022-11-23T06:40:35;22.25;;;6.47;;
2824;SDS011;1420;51.324;12.344;2022-11-23T06:43:02;23.57;;;6.77;;
2824;SDS011;1420;51.324;12.344;2022-11-23T06:45:29;25.87;;;5.75;;
2824;SDS011;1420;51.324;12.344;2022-11-23T06:47:57;21.53;;;6.65;;
2824;SDS011;1420;51.324;12.344;2022-11-23T06:50:25;23.68;;;7.18;;
2824;SDS011;1420;51.324;12.344;2022-11-23T06:52:53;22.05;;;6.45;;
2824;SDS011;1420;51.324;12.344;2022-11-23T06:55:21;24.48;;;6.85;;
2824;SDS011;1420;51.324;12.344;2022-11-23T06:57:48;20.60;;;6.10;;
2824;SDS011;1420;51.324;12.344;2022-11-23T07:00:16;21.95;;;5.35;;
2824;SDS011;1420;51.324;12.344;2022-11-23T07:02:47;28.82;;;5.77;;
2824;SDS011;1420;51.324;12.344;2022-11-23T07:05:11;22.05;;;5.47;;
2824;SDS011;1420;51.324;12.344;2022-11-23T07:07:38;21.78;;;5.72;;
2824;SDS011;1420;51.324;12.344;2022-11-23T07:10:05;21.70;;;6.17;;
2824;SDS011;1420;51.324;12.344;2022-11-23T07:12:33;21.32;;;5.90;;
2824;SDS011;1420;51.324;12.344;2022-11-23T07:15:01;24.25;;;6.13;;
2824;SDS011;1420;51.324;12.344;2022-11-23T07:17:28;22.00;;;6.88;;
2824;SDS011;1420;51.324;12.344;2022-11-23T07:19:55;21.43;;;5.42;;
2824;SDS011;1420;51.324;12.344;2022-11-23T07:22:22;23.43;;;5.93;;
2824;SDS011;1420;51.324;12.344;2022-11-23T07:24:49;24.40;;;7.67;;
2824;SDS011;1420;51.324;12.344;2022-11-23T07:27:17;23.52;;;5.70;;
2824;SDS011;1420;51.324;12.344;2022-11-23T07:29:44;28.00;;;6.48;;
2824;SDS011;1420;51.324;12.344;2022-11-23T07:32:12;19.60;;;7.02;;
2824;SDS011;1420;51.324;12.344;2022-11-23T07:34:39;22.40;;;7.47;;
2824;SDS011;1420;51.324;12.344;2022-11-23T07:37:07;22.78;;;6.68;;
2824;SDS011;1420;51.324;12.344;2022-11-23T07:39:35;27.12;;;8.33;;
2824;SDS011;1420;51.324;12.344;2022-11-23T07:42:02;20.53;;;5.88;;
2824;SDS011;1420;51.324;12.344;2022-11-23T07:44:29;24.42;;;7.55;;
2824;SDS011;1420;51.324;12.344;2022-11-23T07:46:56;21.95;;;6.38;;
2824;SDS011;1420;51.324;12.344;2022-11-23T07:49:24;22.37;;;6.58;;
2824;SDS011;1420;51.324;12.344;2022-11-23T07:51:52;20.27;;;5.83;;
2824;SDS011;1420;51.324;12.344;2022-11-23T07:54:19;21.30;;;6.00;;
2824;SDS011;1420;51.324;12.344;2022-11-23T07:56:46;18.95;;;5.43;;
2824;SDS011;1420;51.324;12.344;2022-11-23T07:59:14;21.90;;;7.77;;
2824;SDS011;1420;51.324;12.344;2022-11-23T08:01:42;21.05;;;5.43;;
2824;SDS011;1420;51.324;12.344;2022-11-23T08:04:10;21.22;;;6.75;;
2824;SDS011;1420;51.324;12.344;2022-11-23T08:06:37;18.75;;;5.07;;
2824;SDS011;1420;51.324;12.344;2022-11-23T08:09:04;23.22;;;6.80;;
2824;SDS011;1420;51.324;12.344;2022-11-23T08:11:32;27.85;;;12.58;;
2824;SDS011;1420;51.324;12.344;2022-11-23T08:14:00;19.85;;;5.32;;
2824;SDS011;1420;51.324;12.344;2022-11-23T08:16:27;22.50;;;5.52;;
2824;SDS011;1420;51.324;12.344;2022-11-23T08:18:56;22.98;;;6.17;;
2824;SDS011;1420;51.324;12.344;2022-11-23T08:21:23;22.23;;;5.98;;
2824;SDS011;1420;51.324;12.344;2022-11-23T08:23:51;23.23;;;6.35;;
2824;SDS011;1420;51.324;12.344;2022-11-23T08:26:18;21.23;;;6.43;;
2824;SDS011;1420;51.324;12.344;2022-11-23T08:28:45;21.73;;;6.23;;
2824;SDS011;1420;51.324;12.344;2022-11-23T08:31:12;17.57;;;4.85;;
2824;SDS011;1420;51.324;12.344;2022-11-23T08:33:40;28.17;;;6.18;;
2824;SDS011;1420;51.324;12.344;2022-11-23T08:36:08;21.40;;;5.67;;
2824;SDS011;1420;51.324;12.344;2022-11-23T08:38:35;21.02;;;6.95;;
2824;SDS011;1420;51.324;12.344;2022-11-23T08:41:02;20.30;;;5.82;;
2824;SDS011;1420;51.324;12.344;2022-11-23T08:43:29;24.53;;;6.98;;
2824;SDS011;1420;51.324;12.344;2022-11-23T08:45:57;17.48;;;4.95;;
2824;SDS011;1420;51.324;12.344;2022-11-23T08:48:24;24.22;;;6.37;;
2824;SDS011;1420;51.324;12.344;2022-11-23T08:50:51;21.32;;;6.75;;
2824;SDS011;1420;51.324;12.344;2022-11-23T08:53:19;18.12;;;5.43;;
2824;SDS011;1420;51.324;12.344;2022-11-23T08:55:47;18.58;;;6.03;;
2824;SDS011;1420;51.324;12.344;2022-11-23T08:58:14;21.97;;;5.82;;
2824;SDS011;1420;51.324;12.344;2022-11-23T09:00:41;17.20;;;5.70;;
2824;SDS011;1420;51.324;12.344;2022-11-23T09:03:08;20.58;;;6.28;;
2824;SDS011;1420;51.324;12.344;2022-11-23T09:05:36;18.97;;;6.03;;
2824;SDS011;1420;51.324;12.344;2022-11-23T09:08:03;15.88;;;4.75;;
2824;SDS011;1420;51.324;12.344;2022-11-23T09:10:30;25.37;;;7.63;;
2824;SDS011;1420;51.324;12.344;2022-11-23T09:12:59;16.80;;;5.15;;
2824;SDS011;1420;51.324;12.344;2022-11-23T09:15:26;18.45;;;6.03;;
2824;SDS011;1420;51.324;12.344;2022-11-23T09:17:53;17.82;;;6.43;;
2824;SDS011;1420;51.324;12.344;2022-11-23T09:20:20;17.07;;;5.38;;
2824;SDS011;1420;51.324;12.344;2022-11-23T09:22:50;14.98;;;5.35;;
2824;SDS011;1420;51.324;12.344;2022-11-23T09:25:18;21.82;;;5.18;;
2824;SDS011;1420;51.324;12.344;2022-11-23T09:27:45;15.88;;;5.50;;
2824;SDS011;1420;51.324;12.344;2022-11-23T09:30:13;15.70;;;5.67;;
2824;SDS011;1420;51.324;12.344;2022-11-23T09:32:40;15.85;;;4.48;;
2824;SDS011;1420;51.324;12.344;2022-11-23T09:35:08;18.28;;;5.38;;
2824;SDS011;1420;51.324;12.344;2022-11-23T09:37:35;15.85;;;5.17;;
2824;SDS011;1420;51.324;12.344;2022-11-23T09:40:02;16.32;;;4.62;;
2824;SDS011;1420;51.324;12.344;2022-11-23T09:45:33;16.32;;;4.90;;
2824;SDS011;1420;51.324;12.344;2022-11-23T09:50:44;17.13;;;4.82;;
2824;SDS011;1420;51.324;12.344;2022-11-23T09:53:21;16.97;;;4.67;;
2824;SDS011;1420;51.324;12.344;2022-11-23T09:55:49;18.77;;;4.13;;
2824;SDS011;1420;51.324;12.344;2022-11-23T09:58:18;16.65;;;4.70;;
2824;SDS011;1420;51.324;12.344;2022-11-23T10:00:46;15.13;;;4.27;;
2824;SDS011;1420;51.324;12.344;2022-11-23T10:03:13;19.72;;;4.82;;
2824;SDS011;1420;51.324;12.344;2022-11-23T10:05:40;14.70;;;4.42;;
2824;SDS011;1420;51.324;12.344;2022-11-23T10:08:12;15.00;;;4.88;;
2824;SDS011;1420;51.324;12.344;2022-11-23T10:10:40;17.03;;;4.98;;
2824;SDS011;1420;51.324;12.344;2022-11-23T10:13:13;15.08;;;3.92;;
2824;SDS011;1420;51.324;12.344;2022-11-23T10:15:56;19.85;;;5.42;;
2824;SDS011;1420;51.324;12.344;2022-11-23T10:18:42;18.45;;;3.97;;
2824;SDS011;1420;51.324;12.344;2022-11-23T10:21:29;15.37;;;3.27;;
2824;SDS011;1420;51.324;12.344;2022-11-23T10:24:15;17.02;;;3.65;;
2824;SDS011;1420;51.324;12.344;2022-11-23T10:26:41;16.07;;;4.23;;
2824;SDS011;1420;51.324;12.344;2022-11-23T10:29:16;18.88;;;3.82;;
2824;SDS011;1420;51.324;12.344;2022-11-23T10:31:48;15.83;;;3.02;;
2824;SDS011;1420;51.324;12.344;2022-11-23T10:34:15;17.48;;;4.27;;
2824;SDS011;1420;51.324;12.344;2022-11-23T10:36:42;14.53;;;3.48;;
2824;SDS011;1420;51.324;12.344;2022-11-23T10:41:53;18.37;;;4.13;;
2824;SDS011;1420;51.324;12.344;2022-11-23T10:44:25;17.42;;;3.57;;
2824;SDS011;1420;51.324;12.344;2022-11-23T10:46:54;13.52;;;3.05;;
2824;SDS011;1420;51.324;12.344;2022-11-23T10:49:24;14.37;;;3.28;;
2824;SDS011;1420;51.324;12.344;2022-11-23T10:51:52;15.03;;;3.22;;
2824;SDS011;1420;51.324;12.344;2022-11-23T10:54:23;16.73;;;3.35;;
2824;SDS011;1420;51.324;12.344;2022-11-23T10:56:50;17.65;;;6.43;;
2824;SDS011;1420;51.324;12.344;2022-11-23T11:01:58;14.45;;;3.42;;
2824;SDS011;1420;51.324;12.344;2022-11-23T11:04:25;13.50;;;2.82;;
2824;SDS011;1420;51.324;12.344;2022-11-23T11:07:08;15.67;;;3.15;;
2824;SDS011;1420;51.324;12.344;2022-11-23T11:09:23;17.77;;;3.10;;
2824;SDS011;1420;51.324;12.344;2022-11-23T11:11:51;13.83;;;3.80;;
2824;SDS011;1420;51.324;12.344;2022-11-23T11:14:19;15.17;;;3.30;;
2824;SDS011;1420;51.324;12.344;2022-11-23T11:16:49;13.48;;;2.62;;
2824;SDS011;1420;51.324;12.344;2022-11-23T11:19:20;16.30;;;3.22;;
2824;SDS011;1420;51.324;12.344;2022-11-23T11:21:52;18.27;;;3.65;;
2824;SDS011;1420;51.324;12.344;2022-11-23T11:24:20;16.08;;;3.30;;
2824;SDS011;1420;51.324;12.344;2022-11-23T11:26:48;16.83;;;3.82;;
2824;SDS011;1420;51.324;12.344;2022-11-23T11:29:23;15.58;;;3.15;;
2824;SDS011;1420;51.324;12.344;2022-11-23T11:31:55;16.93;;;3.45;;
2824;SDS011;1420;51.324;12.344;2022-11-23T11:34:25;15.90;;;4.08;;
2824;SDS011;1420;51.324;12.344;2022-11-23T11:36:54;15.63;;;2.65;;
2824;SDS011;1420;51.324;12.344;2022-11-23T11:39:38;15.08;;;3.10;;
2824;SDS011;1420;51.324;12.344;2022-11-23T11:41:51;15.37;;;3.15;;
2824;SDS011;1420;51.324;12.344;2022-11-23T11:44:20;13.60;;;3.20;;
2824;SDS011;1420;51.324;12.344;2022-11-23T11:46:47;13.87;;;3.00;;
2824;SDS011;1420;51.324;12.344;2022-11-23T11:49:19;17.05;;;4.32;;
2824;SDS011;1420;51.324;12.344;2022-11-23T11:51:46;15.27;;;3.25;;
2824;SDS011;1420;51.324;12.344;2022-11-23T11:54:21;16.97;;;2.85;;
2824;SDS011;1420;51.324;12.344;2022-11-23T11:56:49;13.25;;;2.83;;
2824;SDS011;1420;51.324;12.344;2022-11-23T12:04:40;16.23;;;3.45;;
2824;SDS011;1420;51.324;12.344;2022-11-23T12:07:08;17.18;;;3.38;;
2824;SDS011;1420;51.324;12.344;2022-11-23T12:09:36;13.45;;;2.48;;
2824;SDS011;1420;51.324;12.344;2022-11-23T12:12:01;16.22;;;3.62;;
2824;SDS011;1420;51.324;12.344;2022-11-23T12:14:28;13.78;;;3.38;;
2824;SDS011;1420;51.324;12.344;2022-11-23T12:17:01;17.15;;;3.73;;
2824;SDS011;1420;51.324;12.344;2022-11-23T12:19:30;13.42;;;2.68;;
2824;SDS011;1420;51.324;12.344;2022-11-23T12:22:05;17.28;;;3.37;;
2824;SDS011;1420;51.324;12.344;2022-11-23T12:24:58;14.98;;;3.93;;
2824;SDS011;1420;51.324;12.344;2022-11-23T12:27:47;13.98;;;2.53;;
2824;SDS011;1420;51.324;12.344;2022-11-23T12:30:20;14.00;;;3.18;;
2824;SDS011;1420;51.324;12.344;2022-11-23T12:32:55;13.52;;;2.80;;
2824;SDS011;1420;51.324;12.344;2022-11-23T12:38:13;14.97;;;2.90;;
2824;SDS011;1420;51.324;12.344;2022-11-23T12:40:46;14.40;;;2.72;;
2824;SDS011;1420;51.324;12.344;2022-11-23T12:43:12;12.78;;;2.45;;
2824;SDS011;1420;51.324;12.344;2022-11-23T12:45:48;15.55;;;2.70;;
2824;SDS011;1420;51.324;12.344;2022-11-23T12:48:24;13.60;;;3.03;;
2824;SDS011;1420;51.324;12.344;2022-11-23T12:58:56;13.60;;;2.47;;
2824;SDS011;1420;51.324;12.344;2022-11-23T13:01:29;17.68;;;3.67;;
2824;SDS011;1420;51.324;12.344;2022-11-23T13:06:43;14.78;;;2.98;;
2824;SDS011;1420;51.324;12.344;2022-11-23T13:09:11;14.77;;;2.35;;
2824;SDS011;1420;51.324;12.344;2022-11-23T13:14:52;14.80;;;2.57;;
2824;SDS011;1420;51.324;12.344;2022-11-23T13:17:40;11.77;;;2.07;;
2824;SDS011;1420;51.324;12.344;2022-11-23T13:22:39;12.87;;;2.10;;
2824;SDS011;1420;51.324;12.344;2022-11-23T13:25:18;14.42;;;2.22;;
2824;SDS011;1420;51.324;12.344;2022-11-23T13:27:55;13.00;;;2.48;;
2824;SDS011;1420;51.324;12.344;2022-11-23T13:33:24;14.75;;;3.68;;
2824;SDS011;1420;51.324;12.344;2022-11-23T13:35:52;15.00;;;3.83;;
2824;SDS011;1420;51.324;12.344;2022-11-23T13:38:22;15.67;;;3.08;;
2824;SDS011;1420;51.324;12.344;2022-11-23T13:40:49;17.55;;;2.65;;
2824;SDS011;1420;51.324;12.344;2022-11-23T13:43:19;14.45;;;3.55;;
2824;SDS011;1420;51.324;12.344;2022-11-23T13:45:45;15.55;;;2.47;;
2824;SDS011;1420;51.324;12.344;2022-11-23T13:48:14;13.80;;;3.13;;
2824;SDS011;1420;51.324;12.344;2022-11-23T13:50:54;15.00;;;2.35;;
2824;SDS011;1420;51.324;12.344;2022-11-23T13:53:27;13.53;;;2.52;;
2824;SDS011;1420;51.324;12.344;2022-11-23T13:58:49;14.70;;;3.28;;
2824;SDS011;1420;51.324;12.344;2022-11-23T14:04:23;11.90;;;2.50;;
2824;SDS011;1420;51.324;12.344;2022-11-23T14:06:50;14.02;;;2.20;;
2824;SDS011;1420;51.324;12.344;2022-11-23T14:09:25;13.13;;;2.52;;
2824;SDS011;1420;51.324;12.344;2022-11-23T14:11:59;13.98;;;3.15;;
2824;SDS011;1420;51.324;12.344;2022-11-23T14:14:43;12.43;;;2.18;;
2824;SDS011;1420;51.324;12.344;2022-11-23T14:17:52;13.40;;;2.37;;
2824;SDS011;1420;51.324;12.344;2022-11-23T14:20:05;12.75;;;2.30;;
2824;SDS011;1420;51.324;12.344;2022-11-23T14:25:23;13.03;;;2.40;;
2824;SDS011;1420;51.324;12.344;2022-11-23T14:27:57;14.57;;;2.75;;
2824;SDS011;1420;51.324;12.344;2022-11-23T14:30:47;12.17;;;1.98;;
2824;SDS011;1420;51.324;12.344;2022-11-23T14:33:21;13.88;;;4.58;;
2824;SDS011;1420;51.324;12.344;2022-11-23T14:35:52;14.22;;;2.78;;
2824;SDS011;1420;51.324;12.344;2022-11-23T14:38:33;12.97;;;2.18;;
2824;SDS011;1420;51.324;12.344;2022-11-23T14:41:06;13.63;;;2.18;;
2824;SDS011;1420;51.324;12.344;2022-11-23T14:43:33;14.88;;;2.77;;
2824;SDS011;1420;51.324;12.344;2022-11-23T14:46:02;14.00;;;2.93;;
2824;SDS011;1420;51.324;12.344;2022-11-23T14:48:30;12.83;;;2.40;;
2824;SDS011;1420;51.324;12.344;2022-11-23T14:51:00;15.68;;;2.93;;
2824;SDS011;1420;51.324;12.344;2022-11-23T14:53:30;13.50;;;2.28;;
2824;SDS011;1420;51.324;12.344;2022-11-23T14:55:56;14.55;;;2.87;;
2824;SDS011;1420;51.324;12.344;2022-11-23T14:58:23;12.48;;;2.02;;
2824;SDS011;1420;51.324;12.344;2022-11-23T15:00:51;13.07;;;2.48;;
2824;SDS011;1420;51.324;12.344;2022-11-23T15:03:19;16.05;;;2.90;;
2824;SDS011;1420;51.324;12.344;2022-11-23T15:05:46;12.58;;;2.48;;
2824;SDS011;1420;51.324;12.344;2022-11-23T15:08:15;16.42;;;4.60;;
2824;SDS011;1420;51.324;12.344;2022-11-23T15:10:51;14.67;;;3.32;;
2824;SDS011;1420;51.324;12.344;2022-11-23T15:13:31;13.93;;;2.10;;
2824;SDS011;1420;51.324;12.344;2022-11-23T15:15:58;15.32;;;2.30;;
2824;SDS011;1420;51.324;12.344;2022-11-23T15:18:28;18.00;;;2.23;;
2824;SDS011;1420;51.324;12.344;2022-11-23T15:20:55;12.97;;;1.93;;
2824;SDS011;1420;51.324;12.344;2022-11-23T15:23:22;13.97;;;2.27;;
2824;SDS011;1420;51.324;12.344;2022-11-23T15:25:50;15.70;;;3.08;;
2824;SDS011;1420;51.324;12.344;2022-11-23T15:28:17;16.17;;;3.10;;
2824;SDS011;1420;51.324;12.344;2022-11-23T15:30:45;15.53;;;2.40;;
2824;SDS011;1420;51.324;12.344;2022-11-23T15:33:13;15.50;;;3.12;;
2824;SDS011;1420;51.324;12.344;2022-11-23T15:35:40;20.72;;;7.12;;
2824;SDS011;1420;51.324;12.344;2022-11-23T15:38:11;22.28;;;6.55;;
2824;SDS011;1420;51.324;12.344;2022-11-23T15:40:37;18.67;;;4.72;;
2824;SDS011;1420;51.324;12.344;2022-11-23T15:43:04;18.57;;;4.90;;
2824;SDS011;1420;51.324;12.344;2022-11-23T15:45:35;18.82;;;3.42;;
2824;SDS011;1420;51.324;12.344;2022-11-23T15:48:09;19.03;;;3.67;;
2824;SDS011;1420;51.324;12.344;2022-11-23T15:50:45;18.68;;;3.32;;